createdAt,value
2022-11-27T00:01:31.358Z,22.08
2022-11-27T00:03:59.013Z,23.35
2022-11-27T00:06:27.951Z,22.90
2022-11-27T00:08:59.919Z,23.80
2022-11-27T00:11:29.268Z,27.52
2022-11-27T00:13:56.799Z,29.05
2022-11-27T00:16:24.885Z,30.05
2022-11-27T00:18:52.942Z,30.65
2022-11-27T00:21:24.041Z,26.92
2022-11-27T00:23:55.401Z,27.17
2022-11-27T00:26:23.176Z,28.33
2022-11-27T00:28:51.064Z,27.83
2022-11-27T00:31:28.571Z,27.35
2022-11-27T00:33:59.153Z,27.62
2022-11-27T00:36:31.596Z,30.83
2022-11-27T00:38:59.209Z,32.33
2022-11-27T00:41:29.023Z,29.12
2022-11-27T00:43:56.882Z,29.27
2022-11-27T00:46:29.078Z,29.60
2022-11-27T00:48:58.255Z,28.77
2022-11-27T00:51:26.464Z,29.42
2022-11-27T00:53:53.897Z,29.23
2022-11-27T00:56:24.274Z,29.10
2022-11-27T00:58:52.129Z,29.67
2022-11-27T01:01:25.054Z,29.85
2022-11-27T01:03:52.734Z,28.33
2022-11-27T01:06:20.646Z,30.98
2022-11-27T01:08:48.184Z,33.30
2022-11-27T01:11:21.203Z,31.65
2022-11-27T01:13:48.996Z,34.05
2022-11-27T01:16:20.231Z,31.95
2022-11-27T01:18:49.246Z,32.97
2022-11-27T01:21:20.717Z,33.58
2022-11-27T01:23:49.554Z,32.42
2022-11-27T01:26:18.071Z,31.60
2022-11-27T01:28:45.762Z,32.42
2022-11-27T01:31:18.827Z,32.30
2022-11-27T01:33:46.946Z,31.70
2022-11-27T01:36:15.637Z,31.70
2022-11-27T01:38:43.164Z,33.08
2022-11-27T01:41:39.892Z,33.90
2022-11-27T01:44:25.350Z,31.00
2022-11-27T01:46:55.766Z,31.02
2022-11-27T01:49:42.769Z,31.00
2022-11-27T01:52:16.896Z,31.45
2022-11-27T01:54:54.936Z,31.48
2022-11-27T01:57:30.363Z,29.37
2022-11-27T01:59:59.329Z,31.62
2022-11-27T02:02:27.424Z,31.67
2022-11-27T02:04:58.754Z,30.98
2022-11-27T02:07:26.197Z,29.20
2022-11-27T02:09:53.656Z,32.42
2022-11-27T02:12:27.284Z,30.73
2022-11-27T02:15:01.576Z,29.48
2022-11-27T02:17:47.663Z,29.12
2022-11-27T02:20:33.206Z,29.35
2022-11-27T02:23:22.077Z,30.00
2022-11-27T02:26:17.922Z,28.90
2022-11-27T02:29:12.914Z,31.52
2022-11-27T02:31:44.684Z,32.08
2022-11-27T02:34:35.784Z,32.42
2022-11-27T02:37:18.309Z,35.85
2022-11-27T02:40:18.106Z,32.80
2022-11-27T02:43:24.420Z,35.05
2022-11-27T02:45:52.425Z,36.92
2022-11-27T02:48:24.224Z,42.83
2022-11-27T02:50:52.658Z,39.90
2022-11-27T02:53:37.931Z,42.38
2022-11-27T02:56:08.709Z,43.55
2022-11-27T02:58:36.503Z,36.67
2022-11-27T03:01:05.939Z,36.30
2022-11-27T03:03:36.763Z,39.00
2022-11-27T03:06:09.696Z,39.05
2022-11-27T03:08:38.866Z,43.90
2022-11-27T03:11:09.941Z,45.38
2022-11-27T03:13:48.907Z,44.05
2022-11-27T03:16:25.264Z,42.60
2022-11-27T03:18:59.370Z,43.42
2022-11-27T03:21:34.950Z,42.58
2022-11-27T03:24:02.722Z,43.13
2022-11-27T03:26:30.768Z,41.70
2022-11-27T03:28:59.966Z,43.13
2022-11-27T03:31:28.738Z,47.13
2022-11-27T03:33:56.753Z,45.85
2022-11-27T03:36:24.094Z,46.85
2022-11-27T03:38:54.156Z,45.12
2022-11-27T03:41:55.219Z,43.53
2022-11-27T03:44:35.803Z,41.60
2022-11-27T03:47:06.331Z,40.00
2022-11-27T03:49:43.001Z,41.92
2022-11-27T03:52:25.008Z,41.25
2022-11-27T03:55:01.521Z,40.10
2022-11-27T03:57:34.140Z,39.33
2022-11-27T04:00:04.867Z,40.92
2022-11-27T04:03:00.911Z,38.28
2022-11-27T04:05:28.511Z,40.42
2022-11-27T04:07:56.812Z,49.65
2022-11-27T04:10:24.210Z,42.67
2022-11-27T04:12:51.819Z,39.90
2022-11-27T04:15:19.144Z,41.42
2022-11-27T04:17:46.473Z,41.85
2022-11-27T04:20:14.628Z,38.60
2022-11-27T04:22:43.153Z,40.75
2022-11-27T04:25:10.537Z,40.40
2022-11-27T04:27:38.307Z,44.13
2022-11-27T04:30:06.157Z,44.45
2022-11-27T04:32:33.552Z,40.53
2022-11-27T04:35:01.334Z,43.87
2022-11-27T04:37:28.766Z,41.53
2022-11-27T04:39:56.080Z,41.10
2022-11-27T04:42:23.693Z,39.10
2022-11-27T04:44:52.552Z,42.38
2022-11-27T04:47:19.978Z,40.63
2022-11-27T04:49:47.560Z,38.25
2022-11-27T04:52:16.941Z,42.33
2022-11-27T04:54:44.304Z,44.97
2022-11-27T04:57:11.998Z,40.42
2022-11-27T04:59:39.413Z,42.60
2022-11-27T05:02:06.783Z,47.55
2022-11-27T05:04:34.460Z,43.78
2022-11-27T05:07:01.810Z,39.70
2022-11-27T05:09:29.183Z,42.00
2022-11-27T05:11:56.802Z,43.08
2022-11-27T05:14:29.181Z,42.65
2022-11-27T05:16:58.719Z,43.17
2022-11-27T05:19:28.699Z,42.97
2022-11-27T05:21:56.441Z,44.35
2022-11-27T05:24:26.347Z,45.55
2022-11-27T05:26:54.529Z,46.53
2022-11-27T05:29:23.341Z,36.13
2022-11-27T05:31:50.972Z,31.52
2022-11-27T05:34:18.727Z,31.70
2022-11-27T05:36:46.536Z,33.47
2022-11-27T05:39:14.615Z,33.40
2022-11-27T05:41:43.186Z,32.50
2022-11-27T05:44:14.667Z,30.98
2022-11-27T05:46:45.217Z,26.70
2022-11-27T05:49:14.136Z,23.35
2022-11-27T05:51:44.182Z,22.13
2022-11-27T05:54:13.834Z,20.92
2022-11-27T05:56:41.147Z,19.67
2022-11-27T05:59:10.211Z,18.65
2022-11-27T06:01:37.621Z,17.87
2022-11-27T06:04:05.441Z,18.17
2022-11-27T06:06:32.779Z,17.77
2022-11-27T06:09:00.582Z,17.15
2022-11-27T06:11:28.165Z,17.52
2022-11-27T06:13:55.508Z,17.12
2022-11-27T06:16:24.071Z,17.52
2022-11-27T06:18:53.178Z,16.98
2022-11-27T06:21:21.750Z,17.80
2022-11-27T06:23:49.228Z,18.20
2022-11-27T06:26:19.375Z,17.83
2022-11-27T06:28:47.593Z,18.80
2022-11-27T06:31:18.497Z,19.25
2022-11-27T06:33:47.317Z,17.70
2022-11-27T06:36:15.166Z,18.15
2022-11-27T06:38:42.962Z,19.15
2022-11-27T06:41:13.705Z,19.62
2022-11-27T06:43:41.175Z,18.92
2022-11-27T06:46:12.040Z,20.20
2022-11-27T06:48:39.681Z,19.67
2022-11-27T06:51:07.785Z,19.52
2022-11-27T06:53:36.902Z,18.30
2022-11-27T06:56:06.021Z,18.75
2022-11-27T06:58:33.380Z,19.15
2022-11-27T07:01:02.314Z,19.65
2022-11-27T07:03:30.236Z,20.37
2022-11-27T07:06:03.238Z,20.42
2022-11-27T07:08:31.222Z,19.08
2022-11-27T07:11:03.118Z,18.65
2022-11-27T07:13:31.381Z,18.58
2022-11-27T07:16:06.927Z,17.62
2022-11-27T07:18:45.692Z,18.17
2022-11-27T07:21:13.574Z,20.15
2022-11-27T07:23:41.182Z,18.83
2022-11-27T07:26:11.011Z,17.80
2022-11-27T07:28:38.618Z,22.25
2022-11-27T07:31:06.645Z,23.30
2022-11-27T07:33:34.044Z,24.90
2022-11-27T07:36:05.134Z,22.33
2022-11-27T07:38:33.029Z,23.15
2022-11-27T07:41:01.621Z,24.52
2022-11-27T07:43:29.548Z,23.23
2022-11-27T07:45:57.213Z,22.35
2022-11-27T07:48:25.031Z,22.52
2022-11-27T07:50:52.369Z,20.35
2022-11-27T07:53:20.075Z,20.92
2022-11-27T07:55:47.529Z,20.62
2022-11-27T07:58:14.875Z,21.73
2022-11-27T08:00:42.715Z,25.60
2022-11-27T08:03:10.607Z,36.13
2022-11-27T08:05:38.151Z,48.83
2022-11-27T08:08:05.611Z,46.47
2022-11-27T08:10:37.219Z,45.55
2022-11-27T08:13:05.535Z,33.88
2022-11-27T08:15:33.358Z,31.65
2022-11-27T08:18:00.909Z,27.98
2022-11-27T08:20:28.478Z,25.20
2022-11-27T08:23:02.328Z,23.17
2022-11-27T08:25:30.795Z,23.77
2022-11-27T08:27:58.397Z,23.83
2022-11-27T08:30:25.858Z,21.05
2022-11-27T08:32:53.270Z,20.58
2022-11-27T08:35:22.543Z,56.63
2022-11-27T08:37:49.996Z,25.17
2022-11-27T08:40:17.295Z,19.83
2022-11-27T08:42:44.876Z,18.95
2022-11-27T08:45:12.247Z,19.00
2022-11-27T08:47:39.589Z,17.58
2022-11-27T08:50:07.913Z,20.12
2022-11-27T08:52:35.242Z,19.25
2022-11-27T08:55:02.646Z,19.12
2022-11-27T08:57:30.247Z,19.15
2022-11-27T08:59:57.561Z,21.00
2022-11-27T09:02:24.884Z,20.60
2022-11-27T09:04:53.455Z,17.40
2022-11-27T09:07:20.981Z,16.85
2022-11-27T09:09:48.680Z,15.65
2022-11-27T09:12:16.317Z,29.75
2022-11-27T09:14:43.778Z,31.23
2022-11-27T09:17:11.188Z,20.10
2022-11-27T09:19:38.766Z,37.55
2022-11-27T09:22:06.099Z,22.77
2022-11-27T09:24:33.455Z,17.33
2022-11-27T09:27:01.043Z,15.40
2022-11-27T09:29:28.396Z,14.85
2022-11-27T09:31:55.768Z,13.65
2022-11-27T09:34:23.370Z,14.18
2022-11-27T09:36:50.732Z,15.90
2022-11-27T09:39:19.607Z,15.82
2022-11-27T09:41:53.591Z,15.48
2022-11-27T09:44:40.693Z,14.82
2022-11-27T09:47:27.168Z,15.60
2022-11-27T09:50:37.199Z,16.50
2022-11-27T09:53:17.836Z,13.93
2022-11-27T09:55:48.736Z,15.63
2022-11-27T09:58:19.180Z,16.87
2022-11-27T10:00:47.624Z,14.65
2022-11-27T10:03:18.840Z,18.20
2022-11-27T10:13:59.564Z,25.65
2022-11-27T10:16:44.757Z,24.95
2022-11-27T10:19:33.783Z,28.65
2022-11-27T10:22:19.683Z,20.25
2022-11-27T10:25:18.102Z,24.30
2022-11-27T10:27:58.471Z,16.12
2022-11-27T10:30:27.200Z,60.45
2022-11-27T10:32:56.565Z,32.38
2022-11-27T10:35:29.692Z,17.23
2022-11-27T10:38:08.520Z,17.02
2022-11-27T10:40:42.992Z,19.20
2022-11-27T10:43:14.907Z,18.17
2022-11-27T10:46:05.120Z,18.00
2022-11-27T10:48:33.306Z,17.33
2022-11-27T10:51:00.856Z,21.02
2022-11-27T10:53:34.159Z,20.05
2022-11-27T10:56:10.468Z,19.30
2022-11-27T10:58:56.252Z,19.92
2022-11-27T11:01:25.673Z,18.45
2022-11-27T11:04:31.387Z,19.37
2022-11-27T11:06:55.104Z,23.92
2022-11-27T11:09:32.845Z,29.20
2022-11-27T11:12:18.481Z,24.92
2022-11-27T11:14:54.685Z,23.25
2022-11-27T11:17:26.295Z,24.52
2022-11-27T11:19:53.689Z,24.55
2022-11-27T11:22:21.328Z,22.62
2022-11-27T11:24:52.885Z,23.10
2022-11-27T11:27:23.531Z,24.20
2022-11-27T11:29:53.470Z,23.95
2022-11-27T11:32:20.698Z,23.70
2022-11-27T11:35:00.822Z,23.83
2022-11-27T11:37:34.074Z,22.87
2022-11-27T11:40:01.288Z,23.60
2022-11-27T11:42:31.832Z,27.20
2022-11-27T11:45:11.210Z,26.45
2022-11-27T11:47:47.003Z,26.58
2022-11-27T11:50:28.441Z,26.17
2022-11-27T11:53:02.795Z,30.08
2022-11-27T11:55:42.593Z,26.30
2022-11-27T11:58:37.688Z,25.73
2022-11-27T12:01:33.331Z,24.77
2022-11-27T12:04:40.665Z,26.70
2022-11-27T12:07:25.134Z,24.20
2022-11-27T12:09:58.471Z,25.83
2022-11-27T12:12:47.385Z,25.70
2022-11-27T12:15:28.526Z,34.90
2022-11-27T12:18:03.240Z,30.25
2022-11-27T12:20:46.476Z,26.42
2022-11-27T12:23:28.912Z,23.73
2022-11-27T12:26:17.970Z,26.17
2022-11-27T12:29:02.364Z,26.80
2022-11-27T12:31:52.390Z,25.85
2022-11-27T12:34:28.721Z,25.45
2022-11-27T12:37:09.881Z,25.85
2022-11-27T12:39:54.849Z,24.42
2022-11-27T12:42:47.063Z,23.20
2022-11-27T12:45:20.287Z,24.80
2022-11-27T12:48:01.456Z,27.25
2022-11-27T12:51:06.766Z,25.65
2022-11-27T12:53:48.505Z,25.12
2022-11-27T12:56:22.404Z,23.55
2022-11-27T12:59:08.750Z,23.30
2022-11-27T13:02:27.650Z,22.42
2022-11-27T13:05:02.682Z,23.87
2022-11-27T13:07:44.739Z,24.02
2022-11-27T13:10:13.984Z,22.17
2022-11-27T13:13:02.498Z,20.42
2022-11-27T13:15:38.901Z,20.90
2022-11-27T13:18:25.581Z,22.15
2022-11-27T13:20:53.788Z,21.17
2022-11-27T13:23:21.344Z,20.37
2022-11-27T13:25:55.056Z,20.27
2022-11-27T13:28:41.241Z,19.15
2022-11-27T13:31:09.771Z,19.45
2022-11-27T13:33:42.904Z,19.87
2022-11-27T13:36:23.087Z,19.08
2022-11-27T13:38:58.643Z,19.15
2022-11-27T13:41:33.556Z,18.95
2022-11-27T13:44:01.803Z,20.15
2022-11-27T13:46:30.936Z,18.85
2022-11-27T13:49:02.319Z,18.40
2022-11-27T13:51:32.484Z,19.40
2022-11-27T13:54:13.041Z,18.73
2022-11-27T13:56:41.133Z,19.85
2022-11-27T13:59:20.613Z,19.83
2022-11-27T14:01:59.383Z,20.77
2022-11-27T14:04:28.450Z,21.77
2022-11-27T14:07:00.481Z,20.75
2022-11-27T14:09:41.532Z,22.80
2022-11-27T14:12:27.185Z,22.75
2022-11-27T14:15:18.363Z,21.67
2022-11-27T14:17:47.984Z,20.98
2022-11-27T14:20:18.747Z,23.80
2022-11-27T17:43:44.047Z,25.62
2022-11-27T17:46:17.796Z,25.05
2022-11-27T17:48:45.830Z,25.35
2022-11-27T17:51:14.181Z,22.35
2022-11-27T17:53:43.161Z,22.83
2022-11-27T17:56:14.170Z,20.70
2022-11-27T17:58:42.966Z,22.58
2022-11-27T18:01:17.047Z,21.85
2022-11-27T18:06:16.621Z,20.75
2022-11-27T18:08:45.449Z,17.90
2022-11-27T18:11:20.523Z,17.17
2022-11-27T18:13:49.596Z,18.52
2022-11-27T18:16:29.155Z,17.70
2022-11-27T18:18:58.590Z,16.48
2022-11-27T18:21:28.944Z,16.05
2022-11-27T18:29:36.901Z,17.12
2022-11-27T18:32:05.625Z,15.73
2022-11-27T18:34:33.595Z,15.05
2022-11-27T18:37:01.624Z,15.23
2022-11-27T18:39:30.247Z,14.70
2022-11-27T18:41:58.872Z,14.98
2022-11-27T18:44:27.032Z,15.45
2022-11-27T18:46:57.603Z,13.88
2022-11-27T18:49:26.521Z,14.63
2022-11-27T18:51:54.793Z,13.88
2022-11-27T18:54:23.008Z,15.05
2022-11-27T18:56:50.899Z,13.98
2022-11-27T18:59:19.206Z,14.65
2022-11-27T19:01:47.518Z,13.27
2022-11-27T19:04:16.380Z,13.62
2022-11-27T19:06:45.153Z,13.23
2022-11-27T19:09:14.838Z,13.07
2022-11-27T19:11:45.031Z,13.20
2022-11-27T19:14:13.496Z,12.10
2022-11-27T19:16:46.750Z,13.02
2022-11-27T19:19:53.864Z,12.33
2022-11-27T19:22:10.565Z,13.35
2022-11-27T19:24:42.804Z,12.77
2022-11-27T19:27:10.617Z,12.73
2022-11-27T19:29:39.588Z,13.18
2022-11-27T19:32:08.475Z,13.15
2022-11-27T19:34:36.773Z,17.48
2022-11-27T19:37:05.069Z,16.17
2022-11-27T19:39:32.703Z,20.05
2022-11-27T19:42:01.093Z,15.70
2022-11-27T19:44:29.738Z,15.65
2022-11-27T19:46:58.976Z,14.32
2022-11-27T19:49:27.299Z,15.25
2022-11-27T19:51:55.752Z,15.25
2022-11-27T19:54:24.462Z,14.82
2022-11-27T19:56:53.432Z,14.87
2022-11-27T19:59:25.792Z,12.77
2022-11-27T20:01:54.419Z,13.75
2022-11-27T20:04:28.147Z,12.37
2022-11-27T20:06:58.084Z,12.45
2022-11-27T20:09:25.928Z,13.20
2022-11-27T20:11:55.667Z,13.62
2022-11-27T20:14:23.758Z,14.73
2022-11-27T20:16:52.260Z,14.00
2022-11-27T20:19:20.330Z,16.90
2022-11-27T20:21:49.372Z,18.92
2022-11-27T20:24:19.213Z,17.77
2022-11-27T20:26:48.014Z,19.35
2022-11-27T20:29:16.353Z,19.75
2022-11-27T20:31:45.187Z,19.15
2022-11-27T20:34:20.644Z,19.48
2022-11-27T20:36:50.644Z,18.02
2022-11-27T20:39:21.610Z,18.75
2022-11-27T20:41:52.017Z,20.12
2022-11-27T20:44:22.644Z,21.70
2022-11-27T20:46:51.059Z,20.17
2022-11-27T20:49:18.992Z,20.15
2022-11-27T20:51:50.842Z,20.42
2022-11-27T20:54:24.005Z,22.55
2022-11-27T20:56:52.082Z,21.70
2022-11-27T20:59:20.161Z,21.40
2022-11-27T21:01:48.479Z,22.75
2022-11-27T21:04:26.662Z,23.80
2022-11-27T21:06:55.043Z,23.95
2022-11-27T21:09:22.549Z,22.37
2022-11-27T21:11:50.419Z,22.08
2022-11-27T21:14:20.629Z,22.00
2022-11-27T21:16:50.750Z,20.50
2022-11-27T21:19:21.566Z,21.62
2022-11-27T21:21:51.118Z,21.80
2022-11-27T21:24:19.955Z,22.75
2022-11-27T21:26:48.075Z,20.73
2022-11-27T21:29:16.447Z,19.42
2022-11-27T21:31:47.176Z,19.80
2022-11-27T21:34:15.880Z,21.42
2022-11-27T21:36:45.403Z,22.08
2022-11-27T21:39:20.093Z,20.50
2022-11-27T21:41:50.476Z,20.58
2022-11-27T21:44:18.910Z,20.92
2022-11-27T21:46:46.955Z,21.12
2022-11-27T21:49:15.546Z,19.98
2022-11-27T21:51:43.039Z,20.67
2022-11-27T21:54:12.951Z,20.75
2022-11-27T21:56:40.916Z,20.30
2022-11-27T21:59:10.925Z,20.62
2022-11-27T22:01:38.414Z,22.20
2022-11-27T22:04:06.331Z,20.55
2022-11-27T22:06:38.666Z,20.33
2022-11-27T22:09:11.882Z,18.73
2022-11-27T22:11:42.511Z,18.12
2022-11-27T22:14:10.142Z,17.77
2022-11-27T22:16:44.908Z,18.35
2022-11-27T22:19:14.676Z,18.23
2022-11-27T22:21:42.758Z,18.42
2022-11-27T22:24:16.521Z,18.83
2022-11-27T22:26:47.367Z,18.08
2022-11-27T22:29:17.122Z,18.10
2022-11-27T22:31:44.516Z,18.12
2022-11-27T22:34:12.300Z,19.17
2022-11-27T22:36:40.158Z,18.17
2022-11-27T22:39:09.079Z,17.12
2022-11-27T22:41:38.140Z,18.35
2022-11-27T22:44:14.400Z,17.62
2022-11-27T22:46:42.651Z,17.23
2022-11-27T22:49:15.398Z,16.37
2022-11-27T22:51:43.851Z,17.48
2022-11-27T22:54:14.945Z,17.42
2022-11-27T22:56:46.410Z,17.12
2022-11-27T23:02:02.664Z,15.90
2022-11-27T23:04:30.234Z,16.75
2022-11-27T23:06:58.157Z,18.48
2022-11-27T23:09:26.319Z,16.52
2022-11-27T23:11:53.876Z,16.23
2022-11-27T23:14:21.235Z,16.48
2022-11-27T23:16:49.391Z,17.15
2022-11-27T23:19:16.793Z,17.25
2022-11-27T23:21:44.132Z,16.48
2022-11-27T23:24:15.250Z,15.68
2022-11-27T23:26:43.752Z,14.82
2022-11-27T23:29:11.327Z,16.10
2022-11-27T23:31:40.158Z,15.77
2022-11-27T23:34:10.699Z,17.10
2022-11-27T23:36:38.621Z,16.40
2022-11-27T23:39:07.693Z,14.65
2022-11-27T23:41:35.027Z,16.40
2022-11-27T23:44:02.347Z,16.08
2022-11-27T23:46:30.515Z,16.15
2022-11-27T23:48:59.656Z,16.25
2022-11-27T23:51:30.301Z,15.52
2022-11-27T23:53:58.182Z,14.00
2022-11-27T23:56:27.994Z,15.00
2022-11-27T23:58:55.800Z,16.10
